sensor_id;sensor_type;location;lat;lon;timestamp;temperature;humidity
71206;SHT31;58935;54.498;18.544;2024-03-17T00:01:35;6.40;67.92
71206;SHT31;58935;54.498;18.544;2024-03-17T00:04:01;6.40;68.02
71206;SHT31;58935;54.498;18.544;2024-03-17T00:06:27;6.41;68.19
71206;SHT31;58935;54.498;18.544;2024-03-17T00:08:53;6.42;68.26
71206;SHT31;58935;54.498;18.544;2024-03-17T00:11:20;6.43;68.33
71206;SHT31;58935;54.498;18.544;2024-03-17T00:13:45;6.43;68.28
71206;SHT31;58935;54.498;18.544;2024-03-17T00:16:12;6.43;68.40
71206;SHT31;58935;54.498;18.544;2024-03-17T00:18:39;6.44;68.37
71206;SHT31;58935;54.498;18.544;2024-03-17T00:21:06;6.43;68.47
71206;SHT31;58935;54.498;18.544;2024-03-17T00:23:31;6.43;68.51
71206;SHT31;58935;54.498;18.544;2024-03-17T00:25:56;6.42;68.59
71206;SHT31;58935;54.498;18.544;2024-03-17T00:28:22;6.41;68.71
71206;SHT31;58935;54.498;18.544;2024-03-17T00:30:48;6.41;68.86
71206;SHT31;58935;54.498;18.544;2024-03-17T00:33:13;6.42;68.99
71206;SHT31;58935;54.498;18.544;2024-03-17T00:35:39;6.41;68.94
71206;SHT31;58935;54.498;18.544;2024-03-17T00:38:04;6.41;69.05
71206;SHT31;58935;54.498;18.544;2024-03-17T00:40:38;6.41;69.09
71206;SHT31;58935;54.498;18.544;2024-03-17T00:43:09;6.41;69.11
71206;SHT31;58935;54.498;18.544;2024-03-17T00:45:36;6.40;69.22
71206;SHT31;58935;54.498;18.544;2024-03-17T00:48:02;6.39;69.30
71206;SHT31;58935;54.498;18.544;2024-03-17T00:50:28;6.40;69.30
71206;SHT31;58935;54.498;18.544;2024-03-17T00:52:53;6.40;69.24
71206;SHT31;58935;54.498;18.544;2024-03-17T00:55:19;6.42;69.33
71206;SHT31;58935;54.498;18.544;2024-03-17T00:57:44;6.41;69.38
71206;SHT31;58935;54.498;18.544;2024-03-17T01:00:09;6.39;69.68
71206;SHT31;58935;54.498;18.544;2024-03-17T01:02:36;6.37;70.30
71206;SHT31;58935;54.498;18.544;2024-03-17T01:05:02;6.32;70.60
71206;SHT31;58935;54.498;18.544;2024-03-17T01:07:30;6.28;70.36
71206;SHT31;58935;54.498;18.544;2024-03-17T01:09:57;6.25;70.44
71206;SHT31;58935;54.498;18.544;2024-03-17T01:12:22;6.22;70.45
71206;SHT31;58935;54.498;18.544;2024-03-17T01:14:48;6.20;70.41
71206;SHT31;58935;54.498;18.544;2024-03-17T01:17:13;6.18;70.34
71206;SHT31;58935;54.498;18.544;2024-03-17T01:19:38;6.18;70.56
71206;SHT31;58935;54.498;18.544;2024-03-17T01:22:04;6.19;70.62
71206;SHT31;58935;54.498;18.544;2024-03-17T01:24:29;6.18;70.59
71206;SHT31;58935;54.498;18.544;2024-03-17T01:26:58;6.16;69.96
71206;SHT31;58935;54.498;18.544;2024-03-17T01:29:24;6.12;69.42
71206;SHT31;58935;54.498;18.544;2024-03-17T01:31:50;6.11;69.44
71206;SHT31;58935;54.498;18.544;2024-03-17T01:34:18;6.10;69.23
71206;SHT31;58935;54.498;18.544;2024-03-17T01:36:44;6.11;69.10
71206;SHT31;58935;54.498;18.544;2024-03-17T01:39:09;6.10;68.97
71206;SHT31;58935;54.498;18.544;2024-03-17T01:41:36;6.08;69.19
71206;SHT31;58935;54.498;18.544;2024-03-17T01:44:06;6.07;69.36
71206;SHT31;58935;54.498;18.544;2024-03-17T01:46:32;6.05;69.68
71206;SHT31;58935;54.498;18.544;2024-03-17T01:48:58;5.96;71.18
71206;SHT31;58935;54.498;18.544;2024-03-17T01:51:26;5.75;72.44
71206;SHT31;58935;54.498;18.544;2024-03-17T01:53:54;5.55;73.22
71206;SHT31;58935;54.498;18.544;2024-03-17T01:56:21;5.39;73.71
71206;SHT31;58935;54.498;18.544;2024-03-17T01:58:46;5.27;74.17
71206;SHT31;58935;54.498;18.544;2024-03-17T02:01:13;5.17;74.69
71206;SHT31;58935;54.498;18.544;2024-03-17T02:03:39;5.05;75.30
71206;SHT31;58935;54.498;18.544;2024-03-17T02:06:07;4.95;75.74
71206;SHT31;58935;54.498;18.544;2024-03-17T02:11:08;4.79;75.81
71206;SHT31;58935;54.498;18.544;2024-03-17T02:13:53;4.72;76.00
71206;SHT31;58935;54.498;18.544;2024-03-17T02:16:20;4.68;75.95
71206;SHT31;58935;54.498;18.544;2024-03-17T02:18:47;4.66;76.06
71206;SHT31;58935;54.498;18.544;2024-03-17T02:21:15;4.64;76.08
71206;SHT31;58935;54.498;18.544;2024-03-17T02:23:47;4.64;76.00
71206;SHT31;58935;54.498;18.544;2024-03-17T02:26:13;4.64;75.91
71206;SHT31;58935;54.498;18.544;2024-03-17T02:28:39;4.65;75.82
71206;SHT31;58935;54.498;18.544;2024-03-17T02:31:07;4.66;75.80
71206;SHT31;58935;54.498;18.544;2024-03-17T02:33:35;4.67;75.78
71206;SHT31;58935;54.498;18.544;2024-03-17T02:36:04;4.68;75.75
71206;SHT31;58935;54.498;18.544;2024-03-17T02:38:33;4.67;75.64
71206;SHT31;58935;54.498;18.544;2024-03-17T02:41:02;4.66;75.34
71206;SHT31;58935;54.498;18.544;2024-03-17T02:43:29;4.65;75.10
71206;SHT31;58935;54.498;18.544;2024-03-17T02:45:54;4.65;75.01
71206;SHT31;58935;54.498;18.544;2024-03-17T02:48:19;4.65;74.90
71206;SHT31;58935;54.498;18.544;2024-03-17T02:50:47;4.65;74.18
71206;SHT31;58935;54.498;18.544;2024-03-17T02:53:14;4.65;73.39
71206;SHT31;58935;54.498;18.544;2024-03-17T02:55:40;4.64;73.39
71206;SHT31;58935;54.498;18.544;2024-03-17T02:58:05;4.64;73.43
71206;SHT31;58935;54.498;18.544;2024-03-17T03:00:33;4.64;73.35
71206;SHT31;58935;54.498;18.544;2024-03-17T03:02:58;4.63;73.61
71206;SHT31;58935;54.498;18.544;2024-03-17T03:05:24;4.63;73.73
71206;SHT31;58935;54.498;18.544;2024-03-17T03:07:50;4.61;74.15
71206;SHT31;58935;54.498;18.544;2024-03-17T03:10:18;4.56;74.56
71206;SHT31;58935;54.498;18.544;2024-03-17T03:12:43;4.51;75.04
71206;SHT31;58935;54.498;18.544;2024-03-17T03:15:09;4.45;75.60
71206;SHT31;58935;54.498;18.544;2024-03-17T03:17:37;4.39;75.92
71206;SHT31;58935;54.498;18.544;2024-03-17T03:20:02;4.34;76.20
71206;SHT31;58935;54.498;18.544;2024-03-17T03:22:28;4.32;76.43
71206;SHT31;58935;54.498;18.544;2024-03-17T03:24:54;4.31;76.23
71206;SHT31;58935;54.498;18.544;2024-03-17T03:27:19;4.30;76.12
71206;SHT31;58935;54.498;18.544;2024-03-17T03:29:44;4.31;75.97
71206;SHT31;58935;54.498;18.544;2024-03-17T03:32:10;4.30;75.96
71206;SHT31;58935;54.498;18.544;2024-03-17T03:34:38;4.31;75.84
71206;SHT31;58935;54.498;18.544;2024-03-17T03:37:04;4.31;75.61
71206;SHT31;58935;54.498;18.544;2024-03-17T03:39:32;4.32;75.44
71206;SHT31;58935;54.498;18.544;2024-03-17T03:41:57;4.34;75.51
71206;SHT31;58935;54.498;18.544;2024-03-17T03:44:23;4.33;75.61
71206;SHT31;58935;54.498;18.544;2024-03-17T03:46:48;4.33;75.80
71206;SHT31;58935;54.498;18.544;2024-03-17T03:49:13;4.33;75.84
71206;SHT31;58935;54.498;18.544;2024-03-17T03:51:41;4.32;75.79
71206;SHT31;58935;54.498;18.544;2024-03-17T03:54:07;4.31;75.78
71206;SHT31;58935;54.498;18.544;2024-03-17T03:56:32;4.26;76.10
71206;SHT31;58935;54.498;18.544;2024-03-17T03:58:58;4.22;76.45
71206;SHT31;58935;54.498;18.544;2024-03-17T04:01:26;4.19;76.79
71206;SHT31;58935;54.498;18.544;2024-03-17T04:03:51;4.15;77.07
71206;SHT31;58935;54.498;18.544;2024-03-17T04:06:17;4.12;77.18
71206;SHT31;58935;54.498;18.544;2024-03-17T04:08:42;4.09;77.34
71206;SHT31;58935;54.498;18.544;2024-03-17T04:11:09;4.07;77.39
71206;SHT31;58935;54.498;18.544;2024-03-17T04:13:34;4.06;77.39
71206;SHT31;58935;54.498;18.544;2024-03-17T04:16:03;4.04;77.65
71206;SHT31;58935;54.498;18.544;2024-03-17T04:18:30;4.01;78.03
71206;SHT31;58935;54.498;18.544;2024-03-17T04:21:00;3.99;78.41
71206;SHT31;58935;54.498;18.544;2024-03-17T04:23:30;3.96;78.55
71206;SHT31;58935;54.498;18.544;2024-03-17T04:25:57;3.94;78.63
71206;SHT31;58935;54.498;18.544;2024-03-17T04:28:24;3.92;79.06
71206;SHT31;58935;54.498;18.544;2024-03-17T04:30:49;3.89;79.37
71206;SHT31;58935;54.498;18.544;2024-03-17T04:33:15;3.87;79.33
71206;SHT31;58935;54.498;18.544;2024-03-17T04:35:42;3.85;79.62
71206;SHT31;58935;54.498;18.544;2024-03-17T04:38:08;3.83;79.62
71206;SHT31;58935;54.498;18.544;2024-03-17T04:40:34;3.79;79.91
71206;SHT31;58935;54.498;18.544;2024-03-17T04:43:06;3.76;80.01
71206;SHT31;58935;54.498;18.544;2024-03-17T04:45:32;3.73;80.31
71206;SHT31;58935;54.498;18.544;2024-03-17T04:47:57;3.71;80.47
71206;SHT31;58935;54.498;18.544;2024-03-17T04:50:23;3.69;80.78
71206;SHT31;58935;54.498;18.544;2024-03-17T04:52:48;3.65;81.05
71206;SHT31;58935;54.498;18.544;2024-03-17T04:55:14;3.63;81.05
71206;SHT31;58935;54.498;18.544;2024-03-17T04:57:41;3.63;81.27
71206;SHT31;58935;54.498;18.544;2024-03-17T05:00:09;3.64;81.44
71206;SHT31;58935;54.498;18.544;2024-03-17T05:02:39;3.62;81.57
71206;SHT31;58935;54.498;18.544;2024-03-17T05:05:05;3.59;81.58
71206;SHT31;58935;54.498;18.544;2024-03-17T05:07:35;3.56;81.77
71206;SHT31;58935;54.498;18.544;2024-03-17T05:10:03;3.54;81.90
71206;SHT31;58935;54.498;18.544;2024-03-17T05:12:32;3.52;82.23
71206;SHT31;58935;54.498;18.544;2024-03-17T05:14:57;3.51;82.34
71206;SHT31;58935;54.498;18.544;2024-03-17T05:17:22;3.51;82.35
71206;SHT31;58935;54.498;18.544;2024-03-17T05:19:48;3.51;82.37
71206;SHT31;58935;54.498;18.544;2024-03-17T05:22:13;3.52;82.44
71206;SHT31;58935;54.498;18.544;2024-03-17T05:24:39;3.52;82.41
71206;SHT31;58935;54.498;18.544;2024-03-17T05:27:04;3.52;82.35
71206;SHT31;58935;54.498;18.544;2024-03-17T05:29:30;3.51;82.32
71206;SHT31;58935;54.498;18.544;2024-03-17T05:31:56;3.45;82.51
71206;SHT31;58935;54.498;18.544;2024-03-17T05:34:21;3.34;82.17
71206;SHT31;58935;54.498;18.544;2024-03-17T05:36:49;3.21;82.05
71206;SHT31;58935;54.498;18.544;2024-03-17T05:39:18;3.07;82.21
71206;SHT31;58935;54.498;18.544;2024-03-17T05:41:45;2.94;82.48
71206;SHT31;58935;54.498;18.544;2024-03-17T05:44:14;2.86;82.82
71206;SHT31;58935;54.498;18.544;2024-03-17T05:46:40;2.80;83.22
71206;SHT31;58935;54.498;18.544;2024-03-17T05:49:07;2.74;83.41
71206;SHT31;58935;54.498;18.544;2024-03-17T05:51:32;2.67;83.59
71206;SHT31;58935;54.498;18.544;2024-03-17T05:53:58;2.61;83.77
71206;SHT31;58935;54.498;18.544;2024-03-17T05:56:23;2.56;83.96
71206;SHT31;58935;54.498;18.544;2024-03-17T05:58:49;2.54;84.12
71206;SHT31;58935;54.498;18.544;2024-03-17T06:01:15;2.51;84.20
71206;SHT31;58935;54.498;18.544;2024-03-17T06:03:40;2.48;84.39
71206;SHT31;58935;54.498;18.544;2024-03-17T06:06:06;2.43;84.57
71206;SHT31;58935;54.498;18.544;2024-03-17T06:08:36;2.39;84.73
71206;SHT31;58935;54.498;18.544;2024-03-17T06:11:04;2.36;84.85
71206;SHT31;58935;54.498;18.544;2024-03-17T06:13:31;2.34;84.97
71206;SHT31;58935;54.498;18.544;2024-03-17T06:15:57;2.33;85.02
71206;SHT31;58935;54.498;18.544;2024-03-17T06:18:25;2.29;85.01
71206;SHT31;58935;54.498;18.544;2024-03-17T06:20:52;2.25;85.21
71206;SHT31;58935;54.498;18.544;2024-03-17T06:23:20;2.24;85.40
71206;SHT31;58935;54.498;18.544;2024-03-17T06:25:48;2.24;85.46
71206;SHT31;58935;54.498;18.544;2024-03-17T06:28:16;2.22;84.92
71206;SHT31;58935;54.498;18.544;2024-03-17T06:30:43;2.20;84.67
71206;SHT31;58935;54.498;18.544;2024-03-17T06:33:13;2.16;84.20
71206;SHT31;58935;54.498;18.544;2024-03-17T06:35:41;2.14;84.19
71206;SHT31;58935;54.498;18.544;2024-03-17T06:38:07;2.11;84.29
71206;SHT31;58935;54.498;18.544;2024-03-17T06:40:35;2.08;84.40
71206;SHT31;58935;54.498;18.544;2024-03-17T06:43:02;2.11;84.58
71206;SHT31;58935;54.498;18.544;2024-03-17T06:45:27;2.11;84.69
71206;SHT31;58935;54.498;18.544;2024-03-17T06:47:52;2.12;84.71
71206;SHT31;58935;54.498;18.544;2024-03-17T06:50:18;2.10;84.64
71206;SHT31;58935;54.498;18.544;2024-03-17T06:52:43;2.10;84.51
71206;SHT31;58935;54.498;18.544;2024-03-17T06:55:09;2.10;84.73
71206;SHT31;58935;54.498;18.544;2024-03-17T06:57:34;2.10;84.83
71206;SHT31;58935;54.498;18.544;2024-03-17T07:00:01;2.01;85.28
71206;SHT31;58935;54.498;18.544;2024-03-17T07:02:30;1.93;86.39
71206;SHT31;58935;54.498;18.544;2024-03-17T07:04:57;1.88;86.77
71206;SHT31;58935;54.498;18.544;2024-03-17T07:07:27;1.85;86.77
71206;SHT31;58935;54.498;18.544;2024-03-17T07:09:53;1.77;86.60
71206;SHT31;58935;54.498;18.544;2024-03-17T07:12:18;1.71;87.76
71206;SHT31;58935;54.498;18.544;2024-03-17T07:14:45;1.67;88.16
71206;SHT31;58935;54.498;18.544;2024-03-17T07:17:10;1.66;88.09
71206;SHT31;58935;54.498;18.544;2024-03-17T07:19:35;1.69;87.67
71206;SHT31;58935;54.498;18.544;2024-03-17T07:22:01;1.73;87.35
71206;SHT31;58935;54.498;18.544;2024-03-17T07:24:28;1.77;87.07
71206;SHT31;58935;54.498;18.544;2024-03-17T07:26:55;1.82;86.34
71206;SHT31;58935;54.498;18.544;2024-03-17T07:29:20;1.88;85.86
71206;SHT31;58935;54.498;18.544;2024-03-17T07:31:46;1.91;85.02
71206;SHT31;58935;54.498;18.544;2024-03-17T07:34:11;1.91;83.97
71206;SHT31;58935;54.498;18.544;2024-03-17T07:36:37;1.95;83.76
71206;SHT31;58935;54.498;18.544;2024-03-17T07:39:04;1.99;83.16
71206;SHT31;58935;54.498;18.544;2024-03-17T07:41:32;2.02;82.46
71206;SHT31;58935;54.498;18.544;2024-03-17T07:43:57;2.04;82.29
71206;SHT31;58935;54.498;18.544;2024-03-17T07:46:23;2.06;81.89
71206;SHT31;58935;54.498;18.544;2024-03-17T07:48:48;2.08;81.41
71206;SHT31;58935;54.498;18.544;2024-03-17T07:51:14;2.07;80.81
71206;SHT31;58935;54.498;18.544;2024-03-17T07:53:42;2.08;80.64
71206;SHT31;58935;54.498;18.544;2024-03-17T07:56:10;2.10;80.76
71206;SHT31;58935;54.498;18.544;2024-03-17T07:58:38;2.10;80.58
71206;SHT31;58935;54.498;18.544;2024-03-17T08:01:06;2.07;80.45
71206;SHT31;58935;54.498;18.544;2024-03-17T08:03:35;2.06;80.67
71206;SHT31;58935;54.498;18.544;2024-03-17T08:06:03;2.05;80.43
71206;SHT31;58935;54.498;18.544;2024-03-17T08:08:31;2.05;80.27
71206;SHT31;58935;54.498;18.544;2024-03-17T08:10:57;2.04;79.95
71206;SHT31;58935;54.498;18.544;2024-03-17T08:13:23;2.02;80.06
71206;SHT31;58935;54.498;18.544;2024-03-17T08:18:22;2.03;80.01
71206;SHT31;58935;54.498;18.544;2024-03-17T08:20:47;2.05;80.06
71206;SHT31;58935;54.498;18.544;2024-03-17T08:23:13;2.08;80.15
71206;SHT31;58935;54.498;18.544;2024-03-17T08:25:38;2.06;79.99
71206;SHT31;58935;54.498;18.544;2024-03-17T08:28:07;2.07;79.90
71206;SHT31;58935;54.498;18.544;2024-03-17T08:30:32;2.09;79.68
71206;SHT31;58935;54.498;18.544;2024-03-17T08:32:58;2.11;79.57
71206;SHT31;58935;54.498;18.544;2024-03-17T08:35:25;2.09;79.10
71206;SHT31;58935;54.498;18.544;2024-03-17T08:37:51;2.09;78.41
71206;SHT31;58935;54.498;18.544;2024-03-17T08:40:19;2.08;78.14
71206;SHT31;58935;54.498;18.544;2024-03-17T08:42:45;2.05;77.89
71206;SHT31;58935;54.498;18.544;2024-03-17T08:45:11;2.02;77.73
71206;SHT31;58935;54.498;18.544;2024-03-17T08:47:37;2.00;77.98
71206;SHT31;58935;54.498;18.544;2024-03-17T08:50:04;2.02;78.14
71206;SHT31;58935;54.498;18.544;2024-03-17T08:52:32;2.05;78.37
71206;SHT31;58935;54.498;18.544;2024-03-17T08:54:59;2.12;78.46
71206;SHT31;58935;54.498;18.544;2024-03-17T08:57:28;2.21;78.28
71206;SHT31;58935;54.498;18.544;2024-03-17T08:59:53;2.20;76.66
71206;SHT31;58935;54.498;18.544;2024-03-17T09:02:21;2.20;76.58
71206;SHT31;58935;54.498;18.544;2024-03-17T09:04:46;2.23;76.75
71206;SHT31;58935;54.498;18.544;2024-03-17T09:07:13;2.26;76.63
71206;SHT31;58935;54.498;18.544;2024-03-17T09:09:42;2.31;76.61
71206;SHT31;58935;54.498;18.544;2024-03-17T09:12:08;2.35;76.29
71206;SHT31;58935;54.498;18.544;2024-03-17T09:14:34;2.41;75.95
71206;SHT31;58935;54.498;18.544;2024-03-17T09:17:02;2.45;75.28
71206;SHT31;58935;54.498;18.544;2024-03-17T09:19:30;2.47;74.94
71206;SHT31;58935;54.498;18.544;2024-03-17T09:21:55;2.46;74.48
71206;SHT31;58935;54.498;18.544;2024-03-17T09:24:24;2.48;74.86
71206;SHT31;58935;54.498;18.544;2024-03-17T09:26:49;2.53;74.55
71206;SHT31;58935;54.498;18.544;2024-03-17T09:29:15;2.58;74.67
71206;SHT31;58935;54.498;18.544;2024-03-17T09:31:40;2.60;74.17
71206;SHT31;58935;54.498;18.544;2024-03-17T09:34:07;2.59;73.69
71206;SHT31;58935;54.498;18.544;2024-03-17T09:36:34;2.49;75.10
71206;SHT31;58935;54.498;18.544;2024-03-17T09:39:00;2.32;78.44
71206;SHT31;58935;54.498;18.544;2024-03-17T09:41:29;2.22;79.07
71206;SHT31;58935;54.498;18.544;2024-03-17T09:43:57;2.14;78.83
71206;SHT31;58935;54.498;18.544;2024-03-17T09:46:24;2.12;78.16
71206;SHT31;58935;54.498;18.544;2024-03-17T09:48:52;2.13;78.42
71206;SHT31;58935;54.498;18.544;2024-03-17T09:51:22;2.13;78.11
71206;SHT31;58935;54.498;18.544;2024-03-17T09:53:50;2.09;78.02
71206;SHT31;58935;54.498;18.544;2024-03-17T09:56:16;2.01;78.78
71206;SHT31;58935;54.498;18.544;2024-03-17T09:58:47;2.01;79.46
71206;SHT31;58935;54.498;18.544;2024-03-17T10:01:14;2.09;79.19
71206;SHT31;58935;54.498;18.544;2024-03-17T10:06:11;2.32;78.07
71206;SHT31;58935;54.498;18.544;2024-03-17T10:08:54;2.46;77.60
71206;SHT31;58935;54.498;18.544;2024-03-17T10:11:23;2.62;76.26
71206;SHT31;58935;54.498;18.544;2024-03-17T10:14:05;2.67;73.80
71206;SHT31;58935;54.498;18.544;2024-03-17T10:16:34;2.69;73.25
71206;SHT31;58935;54.498;18.544;2024-03-17T10:21:35;2.76;72.67
71206;SHT31;58935;54.498;18.544;2024-03-17T10:31:42;2.96;72.64
71206;SHT31;58935;54.498;18.544;2024-03-17T10:34:09;3.01;72.87
71206;SHT31;58935;54.498;18.544;2024-03-17T10:36:43;2.98;72.67
71206;SHT31;58935;54.498;18.544;2024-03-17T10:41:54;2.71;73.57
71206;SHT31;58935;54.498;18.544;2024-03-17T10:44:26;2.62;74.36
71206;SHT31;58935;54.498;18.544;2024-03-17T10:46:59;2.60;73.99
71206;SHT31;58935;54.498;18.544;2024-03-17T10:49:28;2.67;73.82
71206;SHT31;58935;54.498;18.544;2024-03-17T10:52:16;2.89;73.78
71206;SHT31;58935;54.498;18.544;2024-03-17T10:54:46;3.08;72.79
71206;SHT31;58935;54.498;18.544;2024-03-17T10:59:54;3.01;73.36
71206;SHT31;58935;54.498;18.544;2024-03-17T11:02:23;2.67;82.67
71206;SHT31;58935;54.498;18.544;2024-03-17T11:04:51;2.42;83.86
71206;SHT31;58935;54.498;18.544;2024-03-17T11:07:20;2.36;83.29
71206;SHT31;58935;54.498;18.544;2024-03-17T11:09:47;2.41;81.89
71206;SHT31;58935;54.498;18.544;2024-03-17T11:14:57;2.69;79.41
71206;SHT31;58935;54.498;18.544;2024-03-17T11:17:42;2.88;78.93
71206;SHT31;58935;54.498;18.544;2024-03-17T11:20:11;2.97;77.88
71206;SHT31;58935;54.498;18.544;2024-03-17T11:22:41;2.97;76.26
71206;SHT31;58935;54.498;18.544;2024-03-17T11:27:45;2.58;81.15
71206;SHT31;58935;54.498;18.544;2024-03-17T11:33:01;2.19;84.16
71206;SHT31;58935;54.498;18.544;2024-03-17T11:35:29;2.18;84.16
71206;SHT31;58935;54.498;18.544;2024-03-17T11:37:54;2.18;83.57
71206;SHT31;58935;54.498;18.544;2024-03-17T11:40:23;2.05;84.02
71206;SHT31;58935;54.498;18.544;2024-03-17T11:45:24;1.76;87.27
71206;SHT31;58935;54.498;18.544;2024-03-17T11:47:52;1.78;86.82
71206;SHT31;58935;54.498;18.544;2024-03-17T11:50:18;1.87;86.37
71206;SHT31;58935;54.498;18.544;2024-03-17T11:52:44;1.99;86.11
71206;SHT31;58935;54.498;18.544;2024-03-17T11:57:42;2.21;84.17
71206;SHT31;58935;54.498;18.544;2024-03-17T12:00:25;2.25;82.03
71206;SHT31;58935;54.498;18.544;2024-03-17T12:02:51;2.28;79.31
71206;SHT31;58935;54.498;18.544;2024-03-17T12:05:19;2.36;79.43
71206;SHT31;58935;54.498;18.544;2024-03-17T12:07:46;2.42;77.88
71206;SHT31;58935;54.498;18.544;2024-03-17T12:10:11;2.48;76.06
71206;SHT31;58935;54.498;18.544;2024-03-17T12:12:38;2.53;74.43
71206;SHT31;58935;54.498;18.544;2024-03-17T12:15:13;2.58;73.64
71206;SHT31;58935;54.498;18.544;2024-03-17T12:17:45;2.66;73.89
71206;SHT31;58935;54.498;18.544;2024-03-17T12:22:45;2.47;80.61
71206;SHT31;58935;54.498;18.544;2024-03-17T12:27:48;2.07;87.24
71206;SHT31;58935;54.498;18.544;2024-03-17T12:30:14;2.00;86.47
71206;SHT31;58935;54.498;18.544;2024-03-17T12:32:42;1.97;84.60
71206;SHT31;58935;54.498;18.544;2024-03-17T12:35:11;1.97;83.50
71206;SHT31;58935;54.498;18.544;2024-03-17T12:37:40;1.98;82.17
71206;SHT31;58935;54.498;18.544;2024-03-17T12:40:17;2.02;82.50
71206;SHT31;58935;54.498;18.544;2024-03-17T12:42:48;2.06;82.12
71206;SHT31;58935;54.498;18.544;2024-03-17T12:45:18;2.13;82.50
71206;SHT31;58935;54.498;18.544;2024-03-17T12:47:47;2.21;81.39
71206;SHT31;58935;54.498;18.544;2024-03-17T12:50:15;2.22;80.08
71206;SHT31;58935;54.498;18.544;2024-03-17T12:52:46;2.23;80.42
71206;SHT31;58935;54.498;18.544;2024-03-17T12:55:18;2.22;79.44
71206;SHT31;58935;54.498;18.544;2024-03-17T12:57:48;2.24;79.57
71206;SHT31;58935;54.498;18.544;2024-03-17T13:00:20;2.24;80.22
71206;SHT31;58935;54.498;18.544;2024-03-17T13:02:51;2.20;80.33
71206;SHT31;58935;54.498;18.544;2024-03-17T13:05:19;2.07;80.62
71206;SHT31;58935;54.498;18.544;2024-03-17T13:07:46;1.89;83.72
71206;SHT31;58935;54.498;18.544;2024-03-17T13:10:14;1.82;84.04
71206;SHT31;58935;54.498;18.544;2024-03-17T13:12:42;1.81;83.47
71206;SHT31;58935;54.498;18.544;2024-03-17T13:15:12;1.73;83.83
71206;SHT31;58935;54.498;18.544;2024-03-17T13:17:42;1.68;83.79
71206;SHT31;58935;54.498;18.544;2024-03-17T13:20:13;1.68;82.96
71206;SHT31;58935;54.498;18.544;2024-03-17T13:22:42;1.65;81.68
71206;SHT31;58935;54.498;18.544;2024-03-17T13:27:41;1.73;83.01
71206;SHT31;58935;54.498;18.544;2024-03-17T13:30:13;1.74;82.06
71206;SHT31;58935;54.498;18.544;2024-03-17T13:32:42;1.76;81.89
71206;SHT31;58935;54.498;18.544;2024-03-17T13:35:14;1.79;81.70
71206;SHT31;58935;54.498;18.544;2024-03-17T13:37:42;1.80;81.13
71206;SHT31;58935;54.498;18.544;2024-03-17T13:40:10;1.80;80.75
71206;SHT31;58935;54.498;18.544;2024-03-17T13:42:39;1.79;80.20
71206;SHT31;58935;54.498;18.544;2024-03-17T13:45:05;1.79;81.07
71206;SHT31;58935;54.498;18.544;2024-03-17T13:47:36;1.80;80.52
71206;SHT31;58935;54.498;18.544;2024-03-17T13:50:01;1.79;79.69
71206;SHT31;58935;54.498;18.544;2024-03-17T13:52:31;1.77;77.87
71206;SHT31;58935;54.498;18.544;2024-03-17T13:54:58;1.77;76.89
71206;SHT31;58935;54.498;18.544;2024-03-17T13:57:24;1.79;76.40
71206;SHT31;58935;54.498;18.544;2024-03-17T13:59:52;1.83;76.53
71206;SHT31;58935;54.498;18.544;2024-03-17T14:02:22;1.89;76.47
71206;SHT31;58935;54.498;18.544;2024-03-17T14:04:48;1.90;75.76
71206;SHT31;58935;54.498;18.544;2024-03-17T14:07:13;1.89;75.34
71206;SHT31;58935;54.498;18.544;2024-03-17T14:09:40;1.89;75.04
71206;SHT31;58935;54.498;18.544;2024-03-17T14:12:08;1.88;74.99
71206;SHT31;58935;54.498;18.544;2024-03-17T14:14:34;1.84;74.32
71206;SHT31;58935;54.498;18.544;2024-03-17T14:16:59;1.80;74.28
71206;SHT31;58935;54.498;18.544;2024-03-17T14:19:27;1.78;74.73
71206;SHT31;58935;54.498;18.544;2024-03-17T14:21:55;1.76;74.77
71206;SHT31;58935;54.498;18.544;2024-03-17T14:24:20;1.75;75.09
71206;SHT31;58935;54.498;18.544;2024-03-17T14:26:48;1.74;74.79
71206;SHT31;58935;54.498;18.544;2024-03-17T14:29:13;1.73;74.98
71206;SHT31;58935;54.498;18.544;2024-03-17T14:31:39;1.72;74.51
71206;SHT31;58935;54.498;18.544;2024-03-17T14:34:09;1.72;74.53
71206;SHT31;58935;54.498;18.544;2024-03-17T14:36:36;1.73;75.72
71206;SHT31;58935;54.498;18.544;2024-03-17T14:39:02;1.74;75.15
71206;SHT31;58935;54.498;18.544;2024-03-17T14:41:28;1.74;74.45
71206;SHT31;58935;54.498;18.544;2024-03-17T14:43:55;1.71;75.31
71206;SHT31;58935;54.498;18.544;2024-03-17T14:46:23;1.50;85.77
71206;SHT31;58935;54.498;18.544;2024-03-17T14:48:49;1.25;89.42
71206;SHT31;58935;54.498;18.544;2024-03-17T14:51:16;1.06;90.71
71206;SHT31;58935;54.498;18.544;2024-03-17T14:53:43;0.89;90.78
71206;SHT31;58935;54.498;18.544;2024-03-17T14:56:15;0.80;90.80
71206;SHT31;58935;54.498;18.544;2024-03-17T14:58:44;0.78;90.82
71206;SHT31;58935;54.498;18.544;2024-03-17T15:01:13;0.78;90.02
71206;SHT31;58935;54.498;18.544;2024-03-17T15:03:39;0.78;89.25
71206;SHT31;58935;54.498;18.544;2024-03-17T15:08:39;0.80;88.78
71206;SHT31;58935;54.498;18.544;2024-03-17T15:11:06;0.80;88.09
71206;SHT31;58935;54.498;18.544;2024-03-17T15:13:34;0.80;87.79
71206;SHT31;58935;54.498;18.544;2024-03-17T15:16:00;0.83;87.47
71206;SHT31;58935;54.498;18.544;2024-03-17T15:18:29;0.85;87.14
71206;SHT31;58935;54.498;18.544;2024-03-17T15:20:55;0.90;86.84
71206;SHT31;58935;54.498;18.544;2024-03-17T15:23:21;0.95;86.86
71206;SHT31;58935;54.498;18.544;2024-03-17T15:25:47;0.98;86.29
71206;SHT31;58935;54.498;18.544;2024-03-17T15:28:12;1.00;85.87
71206;SHT31;58935;54.498;18.544;2024-03-17T15:30:38;0.99;85.27
71206;SHT31;58935;54.498;18.544;2024-03-17T15:33:04;0.99;85.15
71206;SHT31;58935;54.498;18.544;2024-03-17T15:35:30;0.97;84.51
71206;SHT31;58935;54.498;18.544;2024-03-17T15:37:57;0.97;84.85
71206;SHT31;58935;54.498;18.544;2024-03-17T15:40:23;0.99;84.83
71206;SHT31;58935;54.498;18.544;2024-03-17T15:42:51;0.99;84.66
71206;SHT31;58935;54.498;18.544;2024-03-17T15:45:17;1.00;83.87
71206;SHT31;58935;54.498;18.544;2024-03-17T15:47:48;1.01;83.48
71206;SHT31;58935;54.498;18.544;2024-03-17T15:50:13;1.00;83.16
71206;SHT31;58935;54.498;18.544;2024-03-17T15:52:40;1.00;83.02
71206;SHT31;58935;54.498;18.544;2024-03-17T15:55:07;0.97;82.95
71206;SHT31;58935;54.498;18.544;2024-03-17T15:57:34;0.96;82.84
71206;SHT31;58935;54.498;18.544;2024-03-17T16:00:00;0.95;83.16
71206;SHT31;58935;54.498;18.544;2024-03-17T16:02:26;0.89;84.47
71206;SHT31;58935;54.498;18.544;2024-03-17T16:04:52;0.85;84.62
71206;SHT31;58935;54.498;18.544;2024-03-17T16:07:22;0.84;84.24
71206;SHT31;58935;54.498;18.544;2024-03-17T16:09:50;0.82;84.44
71206;SHT31;58935;54.498;18.544;2024-03-17T16:12:17;0.79;85.83
71206;SHT31;58935;54.498;18.544;2024-03-17T16:14:46;0.69;88.12
71206;SHT31;58935;54.498;18.544;2024-03-17T16:17:12;0.62;88.66